Arvin, California
Current Conditions -  °F | °C
As of 11:54 AM on Tuesday 21 Oct 2014 (Local Time) from KBFL Reporting Station
Broken Clouds Broken Clouds  
Wind Chill: 19°   Ceiling: 3200
Heat Index: 19°   Visibility: 10mi
Dew Point:   Wind: 8mph
Humidity: 50%   Direction: 290°WNW
Pressure: 30.06"   Gusts: NA
Location:  35.21°N, 118.82°W
Report Text: KBFL 211854Z 29007KT 10SM BKN032 19/08 A3006 RMK AO2 SLP176 T01890083
Loading
Personal Weather Stations






























Interactive Weather Map
Tropical Storm Tracking
New forecast layout! Learn more

10-Day Weather Forecast

Advertisements
Track Severe Weather on mobile